createdAt,value
2023-05-21T00:00:34.537Z,23.64
2023-05-21T00:01:36.669Z,23.65
2023-05-21T00:02:39.628Z,23.63
2023-05-21T00:03:42.951Z,23.64
2023-05-21T00:04:45.762Z,23.62
2023-05-21T00:05:47.814Z,23.62
2023-05-21T00:06:50.801Z,23.61
2023-05-21T00:07:55.003Z,23.61
2023-05-21T00:08:57.098Z,23.58
2023-05-21T00:09:59.045Z,23.60
2023-05-21T00:11:01.154Z,23.59
2023-05-21T00:12:03.116Z,23.57
2023-05-21T00:13:04.969Z,23.58
2023-05-21T00:14:06.801Z,23.57
2023-05-21T00:15:09.356Z,23.55
2023-05-21T00:16:11.399Z,23.44
2023-05-21T00:17:13.400Z,23.54
2023-05-21T00:18:16.323Z,23.52
2023-05-21T00:19:18.197Z,23.53
2023-05-21T00:20:20.192Z,23.52
2023-05-21T00:21:23.203Z,23.51
2023-05-21T00:22:25.095Z,23.50
2023-05-21T00:23:26.957Z,23.50
2023-05-21T00:24:29.445Z,23.49
2023-05-21T00:25:31.633Z,23.48
2023-05-21T00:26:33.482Z,23.47
2023-05-21T00:27:35.678Z,23.46
2023-05-21T00:28:37.520Z,23.45
2023-05-21T00:29:41.338Z,23.46
2023-05-21T00:30:44.377Z,23.44
2023-05-21T00:31:46.267Z,23.44
2023-05-21T00:32:48.149Z,23.43
2023-05-21T00:33:50.786Z,23.42
2023-05-21T00:34:52.628Z,23.42
2023-05-21T00:35:57.668Z,23.41
2023-05-21T00:36:59.509Z,23.41
2023-05-21T00:38:01.598Z,23.39
2023-05-21T00:39:04.450Z,23.35
2023-05-21T00:40:11.592Z,23.34
2023-05-21T00:41:13.784Z,23.39
2023-05-21T00:42:18.253Z,23.33
2023-05-21T00:43:20.491Z,23.37
2023-05-21T00:44:23.795Z,23.36
2023-05-21T00:45:25.786Z,23.33
2023-05-21T00:46:30.493Z,23.32
2023-05-21T00:47:32.802Z,23.34
2023-05-21T00:48:35.231Z,23.32
2023-05-21T00:49:37.130Z,23.32
2023-05-21T00:50:42.325Z,23.27
2023-05-21T00:51:45.327Z,23.31
2023-05-21T00:52:48.902Z,23.31
2023-05-21T00:53:52.974Z,23.30
2023-05-21T00:54:55.561Z,23.27
2023-05-21T00:55:57.850Z,23.29
2023-05-21T00:57:01.602Z,23.26
2023-05-21T00:58:04.644Z,23.27
2023-05-21T00:59:06.514Z,23.26
2023-05-21T01:00:10.851Z,23.24
2023-05-21T01:01:14.104Z,23.25
2023-05-21T01:02:18.227Z,23.25
2023-05-21T01:03:20.572Z,23.24
2023-05-21T01:04:23.935Z,23.22
2023-05-21T01:05:25.959Z,23.21
2023-05-21T01:06:34.650Z,23.21
2023-05-21T01:07:39.927Z,23.22
2023-05-21T01:08:42.247Z,23.22
2023-05-21T01:09:44.246Z,23.20
2023-05-21T01:10:46.312Z,23.19
2023-05-21T01:11:51.291Z,23.17
2023-05-21T01:12:54.643Z,23.18
2023-05-21T01:13:57.671Z,23.17
2023-05-21T01:15:04.150Z,23.16
2023-05-21T01:16:09.488Z,23.17
2023-05-21T01:17:13.076Z,23.16
2023-05-21T01:18:16.094Z,23.14
2023-05-21T01:19:23.847Z,23.12
2023-05-21T01:20:26.759Z,23.03
2023-05-21T01:21:30.446Z,23.13
2023-05-21T01:22:35.340Z,23.14
2023-05-21T01:23:37.283Z,23.13
2023-05-21T01:24:39.355Z,23.12
2023-05-21T01:25:42.349Z,23.11
2023-05-21T01:26:46.773Z,23.10
2023-05-21T01:27:49.037Z,23.09
2023-05-21T01:28:51.699Z,23.09
2023-05-21T01:29:53.555Z,23.08
2023-05-21T01:30:58.753Z,23.07
2023-05-21T01:32:31.552Z,23.10
2023-05-21T01:33:41.931Z,23.14
2023-05-21T01:35:01.324Z,23.16
2023-05-21T01:36:06.056Z,23.14
2023-05-21T01:37:17.552Z,23.10
2023-05-21T01:38:41.399Z,23.14
2023-05-21T01:39:48.161Z,23.13
2023-05-21T01:41:03.647Z,23.10
2023-05-21T01:42:10.313Z,23.09
2023-05-21T01:43:13.170Z,23.08
2023-05-21T01:44:18.956Z,23.03
2023-05-21T01:45:23.658Z,23.03
2023-05-21T01:46:29.129Z,22.98
2023-05-21T01:47:32.132Z,23.01
2023-05-21T01:48:35.184Z,22.97
2023-05-21T01:49:37.717Z,22.99
2023-05-21T01:50:41.713Z,22.97
2023-05-21T01:51:44.073Z,22.98
2023-05-21T01:52:51.133Z,22.89
2023-05-21T01:53:52.963Z,22.97
2023-05-21T01:54:57.340Z,22.94
2023-05-21T01:55:59.482Z,22.96
2023-05-21T01:57:01.751Z,22.95
2023-05-21T01:58:03.614Z,22.94
2023-05-21T01:59:05.954Z,22.94
2023-05-21T02:00:09.005Z,22.93
2023-05-21T02:01:17.169Z,22.96
2023-05-21T02:02:19.463Z,22.94
2023-05-21T02:03:22.018Z,22.92
2023-05-21T02:04:24.115Z,22.92
2023-05-21T02:05:26.239Z,22.89
2023-05-21T02:06:28.129Z,22.92
2023-05-21T02:07:32.663Z,22.90
2023-05-21T02:08:36.188Z,22.92
2023-05-21T02:09:38.181Z,22.90
2023-05-21T02:10:40.111Z,22.89
2023-05-21T02:11:42.008Z,22.87
2023-05-21T02:12:43.884Z,22.88
2023-05-21T02:13:46.283Z,22.88
2023-05-21T02:14:50.480Z,22.86
2023-05-21T02:15:55.159Z,22.88
2023-05-21T02:16:58.305Z,22.87
2023-05-21T02:18:00.652Z,22.86
2023-05-21T02:19:04.781Z,22.87
2023-05-21T02:20:16.567Z,22.86
2023-05-21T02:21:18.501Z,22.90
2023-05-21T02:22:20.297Z,22.89
2023-05-21T02:23:22.198Z,22.86
2023-05-21T02:24:24.521Z,22.83
2023-05-21T02:25:26.397Z,22.85
2023-05-21T02:26:29.042Z,22.64
2023-05-21T02:27:32.562Z,22.84
2023-05-21T02:28:36.167Z,22.84
2023-05-21T02:29:38.048Z,22.83
2023-05-21T02:30:39.896Z,22.83
2023-05-21T02:31:42.049Z,22.82
2023-05-21T02:32:45.085Z,22.82
2023-05-21T02:33:47.114Z,22.82
2023-05-21T02:34:48.967Z,22.82
2023-05-21T02:35:51.062Z,22.81
2023-05-21T02:36:52.862Z,22.74
2023-05-21T02:37:59.008Z,22.80
2023-05-21T02:39:01.768Z,22.81
2023-05-21T02:40:09.751Z,22.73
2023-05-21T02:41:11.987Z,22.81
2023-05-21T02:42:14.278Z,22.81
2023-05-21T02:43:16.388Z,22.80
2023-05-21T02:44:19.408Z,22.80
2023-05-21T02:45:21.396Z,22.79
2023-05-21T02:46:23.366Z,22.78
2023-05-21T02:47:27.121Z,22.78
2023-05-21T02:48:29.015Z,22.78
2023-05-21T02:49:30.884Z,22.78
2023-05-21T02:50:32.719Z,22.77
2023-05-21T02:51:34.848Z,22.78
2023-05-21T02:52:36.711Z,22.77
2023-05-21T02:53:39.328Z,22.76
2023-05-21T02:54:41.220Z,22.77
2023-05-21T02:55:43.707Z,22.74
2023-05-21T02:56:45.667Z,22.76
2023-05-21T02:57:48.156Z,22.68
2023-05-21T02:58:50.103Z,22.74
2023-05-21T02:59:51.939Z,22.73
2023-05-21T03:00:53.966Z,22.73
2023-05-21T03:01:56.126Z,22.71
2023-05-21T03:02:58.092Z,22.75
2023-05-21T03:04:00.095Z,22.74
2023-05-21T03:05:02.869Z,22.72
2023-05-21T03:06:04.828Z,22.74
2023-05-21T03:07:06.669Z,22.73
2023-05-21T03:08:08.553Z,22.71
2023-05-21T03:09:11.014Z,22.73
2023-05-21T03:10:12.917Z,22.72
2023-05-21T03:11:14.984Z,22.72
2023-05-21T03:12:16.879Z,22.69
2023-05-21T03:13:18.852Z,22.72
2023-05-21T03:14:20.736Z,22.72
2023-05-21T03:15:24.259Z,22.60
2023-05-21T03:16:26.336Z,22.73
2023-05-21T03:17:28.266Z,22.73
2023-05-21T03:18:30.107Z,22.72
2023-05-21T03:19:36.455Z,22.71
2023-05-21T03:20:44.529Z,22.75
2023-05-21T03:21:46.846Z,22.75
2023-05-21T03:22:49.969Z,22.74
2023-05-21T03:23:53.161Z,22.72
2023-05-21T03:24:55.149Z,22.73
2023-05-21T03:25:57.086Z,22.74
2023-05-21T03:27:03.193Z,22.67
2023-05-21T03:28:05.185Z,22.76
2023-05-21T03:29:21.993Z,22.78
2023-05-21T03:30:23.869Z,22.76
2023-05-21T03:31:48.464Z,22.83
2023-05-21T03:32:51.459Z,22.78
2023-05-21T03:33:53.977Z,22.79
2023-05-21T03:35:02.633Z,22.78
2023-05-21T03:36:04.779Z,22.77
2023-05-21T03:37:11.103Z,22.78
2023-05-21T03:38:13.125Z,22.77
2023-05-21T03:39:15.537Z,22.76
2023-05-21T03:40:17.533Z,22.77
2023-05-21T03:41:19.657Z,22.77
2023-05-21T03:42:25.830Z,22.72
2023-05-21T03:43:29.841Z,22.79
2023-05-21T03:44:32.627Z,22.78
2023-05-21T03:46:06.972Z,22.89
2023-05-21T03:47:15.010Z,22.88
2023-05-21T03:48:18.144Z,22.84
2023-05-21T03:49:20.928Z,22.80
2023-05-21T03:50:25.232Z,22.83
2023-05-21T03:51:27.663Z,22.83
2023-05-21T03:52:29.818Z,22.74
2023-05-21T03:53:33.984Z,22.81
2023-05-21T03:54:36.093Z,22.84
2023-05-21T03:55:41.489Z,22.84
2023-05-21T03:56:43.344Z,22.84
2023-05-21T03:57:45.279Z,22.83
2023-05-21T03:58:47.360Z,22.84
2023-05-21T03:59:49.407Z,22.85
2023-05-21T04:00:51.366Z,22.84
2023-05-21T04:01:53.193Z,22.84
2023-05-21T04:02:55.390Z,22.85
2023-05-21T04:03:57.517Z,22.85
2023-05-21T04:05:00.666Z,22.87
2023-05-21T04:06:03.843Z,22.86
2023-05-21T04:07:05.715Z,22.86
2023-05-21T04:08:07.558Z,22.84
2023-05-21T04:09:09.442Z,22.87
2023-05-21T04:10:11.264Z,22.87
2023-05-21T04:11:13.126Z,22.84
2023-05-21T04:12:15.036Z,22.79
2023-05-21T04:13:16.893Z,22.89
2023-05-21T04:14:18.813Z,22.90
2023-05-21T04:15:20.792Z,22.86
2023-05-21T04:16:24.663Z,22.93
2023-05-21T04:17:28.636Z,22.94
2023-05-21T04:18:31.106Z,22.94
2023-05-21T04:19:33.310Z,22.95
2023-05-21T04:20:35.969Z,22.96
2023-05-21T04:21:38.016Z,22.96
2023-05-21T04:22:40.714Z,22.98
2023-05-21T04:23:43.871Z,22.98
2023-05-21T04:24:55.975Z,23.03
2023-05-21T04:26:04.854Z,23.03
2023-05-21T04:27:07.004Z,23.04
2023-05-21T04:28:08.909Z,23.04
2023-05-21T04:29:11.744Z,23.04
2023-05-21T04:30:14.070Z,23.00
2023-05-21T04:31:18.431Z,23.05
2023-05-21T04:32:20.518Z,23.06
2023-05-21T04:33:23.082Z,23.05
2023-05-21T04:34:24.938Z,23.06
2023-05-21T04:35:27.280Z,23.06
2023-05-21T04:36:29.098Z,23.06
2023-05-21T04:37:35.215Z,23.06
2023-05-21T04:38:38.355Z,23.08
2023-05-21T04:39:41.211Z,23.07
2023-05-21T04:40:43.603Z,23.08
2023-05-21T04:41:46.678Z,23.08
2023-05-21T04:42:50.837Z,23.08
2023-05-21T04:43:55.429Z,23.11
2023-05-21T04:45:00.933Z,23.11
2023-05-21T04:46:06.079Z,23.11
2023-05-21T04:47:10.451Z,23.12
2023-05-21T04:48:12.755Z,23.09
2023-05-21T04:49:15.430Z,23.11
2023-05-21T04:50:17.633Z,23.11
2023-05-21T04:51:19.474Z,23.06
2023-05-21T04:52:21.296Z,23.10
2023-05-21T04:53:24.005Z,23.10
2023-05-21T04:54:26.181Z,23.12
2023-05-21T04:55:28.996Z,23.11
2023-05-21T04:56:32.047Z,23.11
2023-05-21T04:57:33.960Z,23.12
2023-05-21T04:58:35.887Z,23.12
2023-05-21T04:59:37.982Z,23.10
2023-05-21T05:00:40.345Z,23.12
2023-05-21T05:01:44.038Z,23.12
2023-05-21T05:02:46.433Z,23.13
2023-05-21T05:03:48.486Z,23.08
2023-05-21T05:04:50.425Z,23.12
2023-05-21T05:05:52.851Z,23.11
2023-05-21T05:06:55.855Z,23.13
2023-05-21T05:07:58.317Z,23.13
2023-05-21T05:09:00.749Z,23.12
2023-05-21T05:10:02.698Z,23.12
2023-05-21T05:11:06.482Z,23.13
2023-05-21T05:12:08.567Z,23.12
2023-05-21T05:13:10.677Z,23.13
2023-05-21T05:14:12.709Z,23.12
2023-05-21T05:15:17.037Z,23.14
2023-05-21T05:16:25.784Z,23.09
2023-05-21T05:17:30.852Z,23.17
2023-05-21T05:18:34.228Z,23.15
2023-05-21T05:19:36.718Z,23.15
2023-05-21T05:20:38.661Z,23.13
2023-05-21T05:21:40.521Z,23.12
2023-05-21T05:22:42.461Z,23.14
2023-05-21T05:23:44.447Z,23.10
2023-05-21T05:24:46.353Z,23.13
2023-05-21T05:25:48.969Z,23.13
2023-05-21T05:26:50.949Z,23.12
2023-05-21T05:27:52.891Z,23.12
2023-05-21T05:28:54.759Z,23.12
2023-05-21T05:29:56.574Z,23.12
2023-05-21T05:30:58.554Z,23.11
2023-05-21T05:32:01.574Z,23.11
2023-05-21T05:33:03.526Z,23.12
2023-05-21T05:34:05.753Z,23.12
2023-05-21T05:35:08.176Z,23.12
2023-05-21T05:36:10.080Z,23.12
2023-05-21T05:37:12.430Z,23.11
2023-05-21T05:38:14.422Z,23.12
2023-05-21T05:39:17.232Z,23.12
2023-05-21T05:40:20.522Z,23.11
2023-05-21T05:41:22.818Z,23.09
2023-05-21T05:42:25.534Z,23.11
2023-05-21T05:43:28.072Z,23.11
2023-05-21T05:44:31.333Z,23.11
2023-05-21T05:45:34.172Z,23.11
2023-05-21T05:46:37.960Z,23.11
2023-05-21T05:47:40.176Z,23.11
2023-05-21T05:48:42.024Z,23.10
2023-05-21T05:49:44.218Z,23.11
2023-05-21T05:50:46.654Z,23.10
2023-05-21T05:51:49.203Z,23.11
2023-05-21T05:52:51.579Z,23.10
2023-05-21T05:53:53.404Z,23.01
2023-05-21T05:54:55.490Z,23.10
2023-05-21T05:55:57.333Z,23.09
2023-05-21T05:56:59.162Z,23.11
2023-05-21T05:58:02.209Z,23.10
2023-05-21T05:59:04.233Z,23.10
2023-05-21T06:00:10.635Z,23.10
2023-05-21T06:01:19.117Z,23.12
2023-05-21T06:02:21.117Z,23.12
2023-05-21T06:03:23.110Z,23.11
2023-05-21T06:04:30.136Z,23.11
2023-05-21T06:05:32.552Z,23.09
2023-05-21T06:06:34.908Z,23.10
2023-05-21T06:07:40.714Z,23.09
2023-05-21T06:08:42.697Z,23.12
2023-05-21T06:09:44.597Z,23.12
2023-05-21T06:10:46.711Z,23.08
2023-05-21T06:11:50.050Z,23.13
2023-05-21T06:12:51.988Z,23.13
2023-05-21T06:13:53.906Z,23.16
2023-05-21T06:14:56.744Z,23.17
2023-05-21T06:15:58.624Z,23.19
2023-05-21T06:17:00.513Z,23.21
2023-05-21T06:18:02.968Z,23.24
2023-05-21T06:19:05.000Z,23.27
2023-05-21T06:20:09.245Z,23.26
2023-05-21T06:21:11.536Z,23.32
2023-05-21T06:22:13.985Z,23.35
2023-05-21T06:23:16.096Z,23.32
2023-05-21T06:24:21.228Z,23.40
2023-05-21T06:25:23.206Z,23.43
2023-05-21T06:26:25.083Z,23.41
2023-05-21T06:27:27.689Z,23.49
2023-05-21T06:28:29.583Z,23.52
2023-05-21T06:29:31.479Z,23.49
2023-05-21T06:30:35.515Z,23.60
2023-05-21T06:31:37.431Z,23.63
2023-05-21T06:32:39.549Z,23.65
2023-05-21T06:33:41.577Z,23.68
2023-05-21T06:34:43.493Z,23.72
2023-05-21T06:35:45.410Z,23.74
2023-05-21T06:36:48.409Z,23.77
2023-05-21T06:37:50.460Z,23.80
2023-05-21T06:38:52.285Z,23.83
2023-05-21T06:39:54.286Z,23.85
2023-05-21T06:40:58.502Z,23.88
2023-05-21T06:42:29.582Z,24.01
2023-05-21T06:43:51.560Z,24.06
2023-05-21T06:45:12.346Z,24.11
2023-05-21T06:46:18.123Z,24.08
2023-05-21T06:47:21.026Z,24.09
2023-05-21T06:48:23.180Z,24.08
2023-05-21T06:49:26.604Z,24.02
2023-05-21T06:50:28.518Z,24.11
2023-05-21T06:51:31.271Z,24.12
2023-05-21T06:52:33.279Z,24.14
2023-05-21T06:53:36.848Z,24.16
2023-05-21T06:54:38.774Z,24.16
2023-05-21T06:55:45.005Z,24.17
2023-05-21T06:57:09.852Z,24.28
2023-05-21T06:58:12.044Z,24.27
2023-05-21T06:59:14.077Z,24.26
2023-05-21T07:00:16.083Z,24.26
2023-05-21T07:01:18.186Z,24.27
2023-05-21T07:02:20.934Z,24.28
2023-05-21T07:03:23.353Z,24.28
2023-05-21T07:04:25.395Z,24.30
2023-05-21T07:05:27.231Z,24.30
2023-05-21T07:06:29.936Z,24.32
2023-05-21T07:07:34.886Z,24.32
2023-05-21T07:08:36.814Z,24.33
2023-05-21T07:09:38.945Z,24.36
2023-05-21T07:10:42.584Z,24.35
2023-05-21T07:11:44.622Z,24.36
2023-05-21T07:12:48.000Z,24.27
2023-05-21T07:13:50.412Z,24.37
2023-05-21T07:14:52.353Z,24.37
2023-05-21T07:15:54.199Z,24.38
2023-05-21T07:16:56.196Z,24.21
2023-05-21T07:17:58.164Z,24.39
2023-05-21T07:19:00.055Z,24.39
2023-05-21T07:20:01.944Z,24.40
2023-05-21T07:21:04.672Z,24.41
2023-05-21T07:22:06.796Z,24.41
2023-05-21T07:23:08.706Z,24.40
2023-05-21T07:24:10.683Z,24.42
2023-05-21T07:25:14.899Z,24.43
2023-05-21T07:26:16.853Z,24.42
2023-05-21T07:28:26.825Z,24.45
2023-05-21T07:29:29.450Z,24.38
2023-05-21T07:30:31.284Z,24.38
2023-05-21T07:31:33.542Z,24.45
2023-05-21T07:32:36.103Z,24.42
2023-05-21T07:33:37.967Z,24.44
2023-05-21T07:34:39.910Z,24.46
2023-05-21T07:35:41.844Z,24.45
2023-05-21T07:36:43.886Z,24.46
2023-05-21T07:37:47.957Z,24.30
2023-05-21T07:38:49.889Z,24.46
2023-05-21T07:39:52.210Z,24.46
2023-05-21T07:40:54.614Z,24.47
2023-05-21T07:41:56.546Z,24.47
2023-05-21T07:42:58.489Z,24.47
2023-05-21T07:44:04.207Z,24.49
2023-05-21T07:45:09.241Z,24.49
2023-05-21T07:46:15.814Z,24.50
2023-05-21T07:47:18.974Z,24.49
2023-05-21T07:48:20.835Z,24.50
2023-05-21T07:49:30.255Z,24.53
2023-05-21T07:50:33.219Z,24.52
2023-05-21T07:51:35.214Z,24.50
2023-05-21T07:52:37.903Z,24.50
2023-05-21T07:53:40.778Z,24.51
2023-05-21T07:54:45.926Z,24.51
2023-05-21T07:55:48.184Z,24.51
2023-05-21T07:56:53.311Z,24.52
2023-05-21T07:58:20.263Z,24.57
2023-05-21T07:59:23.242Z,24.58
2023-05-21T08:00:25.205Z,24.50
2023-05-21T08:01:30.849Z,24.49
2023-05-21T08:02:33.401Z,24.53
2023-05-21T08:03:37.278Z,24.54
2023-05-21T08:04:41.177Z,24.53
2023-05-21T08:05:50.835Z,24.53
2023-05-21T08:06:53.810Z,24.52
2023-05-21T08:07:55.682Z,24.55
2023-05-21T08:08:58.012Z,24.54
2023-05-21T08:10:00.988Z,24.47
2023-05-21T08:11:04.370Z,24.55
2023-05-21T08:12:06.783Z,24.55
2023-05-21T08:13:11.740Z,24.55
2023-05-21T08:14:14.129Z,24.57
2023-05-21T08:15:16.239Z,24.56
2023-05-21T08:16:21.481Z,24.58
2023-05-21T08:17:23.435Z,24.58
2023-05-21T08:18:25.496Z,24.57
2023-05-21T08:19:30.254Z,24.60
2023-05-21T08:20:33.500Z,24.58
2023-05-21T08:21:36.838Z,24.60
2023-05-21T08:22:38.910Z,24.62
2023-05-21T08:23:41.056Z,24.60
2023-05-21T08:24:42.930Z,24.62
2023-05-21T08:25:45.216Z,24.63
2023-05-21T08:26:47.565Z,24.64
2023-05-21T08:27:51.559Z,24.65
2023-05-21T08:28:54.632Z,24.63
2023-05-21T08:29:56.691Z,24.69
2023-05-21T08:30:58.643Z,24.65
2023-05-21T08:32:01.028Z,24.69
2023-05-21T08:33:03.025Z,24.70
2023-05-21T08:34:07.438Z,24.71
2023-05-21T08:35:26.074Z,24.78
2023-05-21T08:36:36.710Z,24.79
2023-05-21T08:37:43.741Z,24.79
2023-05-21T08:38:53.755Z,24.80
2023-05-21T08:40:04.502Z,24.73
2023-05-21T08:41:13.248Z,24.81
2023-05-21T08:42:47.945Z,24.85
2023-05-21T08:43:59.625Z,24.88
2023-05-21T08:45:05.547Z,24.87
2023-05-21T08:46:09.801Z,24.85
2023-05-21T08:47:18.921Z,24.82
2023-05-21T08:48:23.176Z,24.83
2023-05-21T08:49:27.512Z,24.82
2023-05-21T08:50:31.887Z,24.78
2023-05-21T08:51:38.860Z,24.83
2023-05-21T08:52:41.630Z,24.82
2023-05-21T08:53:45.838Z,24.82
2023-05-21T08:54:53.137Z,24.83
2023-05-21T08:55:57.249Z,24.82
2023-05-21T08:57:04.879Z,24.84
2023-05-21T08:58:06.784Z,24.82
2023-05-21T08:59:09.016Z,24.82
2023-05-21T09:00:12.590Z,24.83
2023-05-21T09:01:14.938Z,24.80
2023-05-21T09:02:20.145Z,24.82
2023-05-21T09:03:23.272Z,24.81
2023-05-21T09:04:27.746Z,24.80
2023-05-21T09:05:31.334Z,24.81
2023-05-21T09:06:33.978Z,24.81
2023-05-21T09:08:01.135Z,24.88
2023-05-21T09:09:42.045Z,24.92
2023-05-21T09:10:50.464Z,24.91
2023-05-21T09:11:52.519Z,24.89
2023-05-21T09:12:54.400Z,24.86
2023-05-21T09:13:58.418Z,24.81
2023-05-21T09:15:27.326Z,24.90
2023-05-21T09:16:30.661Z,24.86
2023-05-21T09:17:32.845Z,24.84
2023-05-21T09:18:47.087Z,24.85
2023-05-21T09:20:26.613Z,24.93
2023-05-21T09:21:33.366Z,24.93
2023-05-21T09:22:50.717Z,24.89
2023-05-21T09:23:59.767Z,24.87
2023-05-21T09:25:04.984Z,24.85
2023-05-21T09:26:12.901Z,24.84
2023-05-21T09:27:18.358Z,24.78
2023-05-21T09:28:20.646Z,24.70
2023-05-21T09:29:22.461Z,24.81
2023-05-21T09:30:34.934Z,24.79
2023-05-21T09:31:43.878Z,24.81
2023-05-21T09:32:54.215Z,24.81
2023-05-21T09:33:56.287Z,24.82
2023-05-21T09:35:13.490Z,24.81
2023-05-21T09:36:15.620Z,24.83
2023-05-21T09:37:27.034Z,24.76
2023-05-21T09:38:30.387Z,24.81
2023-05-21T09:39:32.325Z,24.80
2023-05-21T09:40:43.342Z,24.77
2023-05-21T09:41:45.465Z,24.75
2023-05-21T09:42:50.179Z,24.78
2023-05-21T09:43:52.230Z,24.78
2023-05-21T09:44:55.237Z,24.78
2023-05-21T09:46:00.472Z,24.73
2023-05-21T09:47:05.918Z,24.74
2023-05-21T09:48:07.794Z,24.77
2023-05-21T09:49:26.545Z,24.80
2023-05-21T09:50:28.890Z,24.81
2023-05-21T09:51:32.124Z,24.76
2023-05-21T09:52:36.875Z,24.78
2023-05-21T09:53:57.875Z,24.82
2023-05-21T09:54:59.852Z,24.85
2023-05-21T09:56:03.738Z,24.82
2023-05-21T09:57:05.910Z,24.82
2023-05-21T09:58:08.987Z,24.80
2023-05-21T09:59:11.025Z,24.80
2023-05-21T10:00:28.353Z,24.80
2023-05-21T10:01:37.566Z,24.84
2023-05-21T10:02:44.747Z,24.84
2023-05-21T10:03:52.117Z,24.85
2023-05-21T10:04:54.762Z,24.87
2023-05-21T10:05:58.677Z,24.84
2023-05-21T10:07:00.997Z,24.84
2023-05-21T10:08:04.811Z,24.83
2023-05-21T10:09:10.714Z,24.77
2023-05-21T10:10:17.580Z,24.85
2023-05-21T10:11:22.899Z,24.87
2023-05-21T10:12:25.594Z,24.86
2023-05-21T10:13:28.580Z,24.87
2023-05-21T10:14:33.247Z,24.85
2023-05-21T10:15:41.269Z,24.85
2023-05-21T10:16:44.571Z,24.87
2023-05-21T10:17:48.637Z,24.87
2023-05-21T10:18:51.335Z,24.84
2023-05-21T10:19:56.018Z,24.79
2023-05-21T10:20:59.048Z,24.85
2023-05-21T10:22:01.774Z,24.87
2023-05-21T10:23:04.349Z,24.87
2023-05-21T10:24:07.505Z,24.85
2023-05-21T10:25:10.348Z,24.86
2023-05-21T10:26:13.077Z,24.86
2023-05-21T10:27:15.150Z,24.84
2023-05-21T10:28:21.107Z,24.86
2023-05-21T10:29:23.495Z,24.88
2023-05-21T10:30:25.705Z,24.82
2023-05-21T10:31:28.628Z,24.87
2023-05-21T10:32:31.853Z,24.86
2023-05-21T10:33:35.885Z,24.86
2023-05-21T10:34:38.404Z,24.88
2023-05-21T10:35:40.816Z,24.86
2023-05-21T10:36:44.505Z,24.86
2023-05-21T10:37:46.738Z,24.87
2023-05-21T10:38:48.765Z,24.87
2023-05-21T10:39:50.735Z,24.87
2023-05-21T10:40:54.107Z,24.88
2023-05-21T10:42:33.250Z,24.86
2023-05-21T10:43:48.668Z,24.98
2023-05-21T10:45:18.336Z,24.99
2023-05-21T10:46:46.269Z,25.00
2023-05-21T10:48:13.959Z,25.04
2023-05-21T10:49:30.760Z,25.03
2023-05-21T10:50:45.207Z,25.01
2023-05-21T10:52:20.874Z,25.00
2023-05-21T10:53:54.678Z,25.02
2023-05-21T10:55:17.579Z,25.03
2023-05-21T10:56:29.274Z,25.00
2023-05-21T10:57:46.747Z,24.96
2023-05-21T10:59:01.361Z,24.96
2023-05-21T11:00:06.202Z,24.96
2023-05-21T11:01:08.422Z,24.92
2023-05-21T11:02:13.087Z,24.84
2023-05-21T11:03:15.683Z,24.88
2023-05-21T11:04:22.534Z,24.86
2023-05-21T11:05:52.777Z,24.96
2023-05-21T11:06:56.378Z,24.92
2023-05-21T11:07:58.749Z,24.92
2023-05-21T11:09:14.016Z,24.91
2023-05-21T11:10:35.689Z,24.94
2023-05-21T11:11:52.305Z,24.92
2023-05-21T11:13:13.146Z,24.97
2023-05-21T11:15:04.449Z,25.03
2023-05-21T11:16:08.003Z,25.03
2023-05-21T11:17:13.652Z,24.96
2023-05-21T11:18:15.973Z,24.94
2023-05-21T11:19:19.071Z,24.90
2023-05-21T11:20:22.830Z,24.76
2023-05-21T11:21:28.584Z,24.86
2023-05-21T11:22:30.492Z,24.88
2023-05-21T11:23:59.010Z,24.92
2023-05-21T11:25:02.313Z,24.94
2023-05-21T11:26:06.742Z,24.91
2023-05-21T11:27:08.946Z,24.89
2023-05-21T11:28:10.930Z,24.88
2023-05-21T11:29:12.972Z,24.85
2023-05-21T11:30:17.249Z,24.86
2023-05-21T11:31:30.506Z,24.87
2023-05-21T11:32:32.477Z,24.85
2023-05-21T11:33:34.320Z,24.88
2023-05-21T11:34:47.013Z,24.89
2023-05-21T11:35:54.712Z,24.90
2023-05-21T11:37:18.438Z,24.91
2023-05-21T11:38:21.041Z,24.95
2023-05-21T11:39:25.991Z,24.85
2023-05-21T11:40:30.202Z,24.90
2023-05-21T11:42:01.581Z,24.94
2023-05-21T11:43:04.426Z,24.96
2023-05-21T11:44:08.938Z,24.91
2023-05-21T11:45:11.157Z,24.90
2023-05-21T11:46:14.386Z,24.88
2023-05-21T11:47:19.884Z,24.86
2023-05-21T11:48:27.293Z,24.87
2023-05-21T11:49:31.265Z,24.90
2023-05-21T11:50:34.839Z,24.87
2023-05-21T11:51:36.984Z,24.89
2023-05-21T11:52:39.509Z,24.88
2023-05-21T11:53:44.329Z,24.88
2023-05-21T11:54:50.718Z,24.89
2023-05-21T11:55:57.328Z,24.91
2023-05-21T11:57:01.049Z,24.91
2023-05-21T11:58:03.288Z,24.92
2023-05-21T11:59:05.368Z,24.91
2023-05-21T12:00:14.259Z,24.90
2023-05-21T12:01:26.571Z,24.88
2023-05-21T12:02:33.208Z,24.95
2023-05-21T12:03:35.673Z,24.95
2023-05-21T12:04:37.739Z,24.93
2023-05-21T12:05:47.401Z,24.84
2023-05-21T12:06:50.757Z,24.91
2023-05-21T12:07:54.618Z,24.95
2023-05-21T12:08:58.519Z,24.94
2023-05-21T12:10:00.999Z,24.95
2023-05-21T12:11:02.954Z,24.92
2023-05-21T12:12:06.213Z,24.92
2023-05-21T12:13:08.074Z,24.90
2023-05-21T12:14:11.406Z,24.92
2023-05-21T12:15:13.683Z,24.93
2023-05-21T12:16:15.712Z,24.93
2023-05-21T12:17:22.485Z,24.92
2023-05-21T12:18:26.493Z,24.92
2023-05-21T12:19:29.046Z,24.95
2023-05-21T12:20:31.171Z,24.96
2023-05-21T12:21:33.696Z,24.94
2023-05-21T12:22:35.546Z,24.90
2023-05-21T12:23:37.505Z,24.94
2023-05-21T12:24:39.456Z,24.87
2023-05-21T12:25:41.572Z,24.93
2023-05-21T12:26:46.048Z,24.94
2023-05-21T12:27:51.014Z,24.94
2023-05-21T12:28:57.091Z,24.94
2023-05-21T12:29:59.203Z,24.95
2023-05-21T12:31:01.443Z,24.94
2023-05-21T12:32:05.466Z,24.94
2023-05-21T12:33:07.408Z,24.95
2023-05-21T12:34:10.896Z,24.95
2023-05-21T12:35:23.812Z,24.96
2023-05-21T12:36:31.974Z,24.97
2023-05-21T12:37:35.841Z,24.97
2023-05-21T12:38:37.938Z,24.97
2023-05-21T12:39:41.320Z,24.95
2023-05-21T12:40:45.419Z,24.95
2023-05-21T12:41:47.385Z,24.94
2023-05-21T12:42:49.831Z,24.94
2023-05-21T12:43:51.727Z,24.93
2023-05-21T12:44:54.416Z,24.92
2023-05-21T12:45:56.903Z,24.93
2023-05-21T12:46:59.699Z,24.93
2023-05-21T12:48:02.147Z,24.93
2023-05-21T12:49:04.353Z,24.94
2023-05-21T12:50:14.153Z,24.92
2023-05-21T12:51:16.084Z,24.94
2023-05-21T12:52:21.218Z,24.89
2023-05-21T12:53:23.061Z,24.94
2023-05-21T12:54:33.199Z,24.94
2023-05-21T12:55:35.895Z,24.90
2023-05-21T12:56:47.054Z,24.94
2023-05-21T12:57:48.950Z,24.96
2023-05-21T12:58:50.923Z,24.94
2023-05-21T13:00:04.597Z,24.94
2023-05-21T13:01:12.740Z,24.94
2023-05-21T13:02:35.088Z,24.95
2023-05-21T13:03:42.315Z,24.99
2023-05-21T13:04:44.434Z,24.98
2023-05-21T13:05:46.830Z,24.95
2023-05-21T13:06:48.649Z,24.93
2023-05-21T13:07:51.704Z,24.93
2023-05-21T13:08:55.813Z,24.93
2023-05-21T13:09:58.556Z,24.93
2023-05-21T13:11:02.336Z,24.86
2023-05-21T13:12:04.310Z,24.92
2023-05-21T13:13:06.203Z,24.92
2023-05-21T13:14:08.010Z,24.91
2023-05-21T13:15:10.586Z,24.90
2023-05-21T13:16:12.428Z,24.90
2023-05-21T13:17:14.976Z,24.89
2023-05-21T13:18:17.011Z,24.90
2023-05-21T13:19:18.927Z,24.89
2023-05-21T13:20:21.822Z,24.90
2023-05-21T13:21:24.047Z,24.90
2023-05-21T13:22:25.861Z,24.89
2023-05-21T13:23:27.673Z,24.90
2023-05-21T13:24:29.550Z,24.88
2023-05-21T13:25:32.791Z,24.90
2023-05-21T13:26:34.624Z,24.90
2023-05-21T13:27:36.684Z,24.90
2023-05-21T13:28:39.216Z,24.90
2023-05-21T13:29:42.063Z,24.91
2023-05-21T13:30:43.957Z,24.74
2023-05-21T13:31:45.839Z,24.89
2023-05-21T13:32:48.292Z,24.90
2023-05-21T13:33:50.604Z,24.90
2023-05-21T13:34:52.486Z,24.90
2023-05-21T13:35:54.308Z,24.89
2023-05-21T13:36:56.156Z,24.89
2023-05-21T13:37:58.013Z,24.89
2023-05-21T13:38:59.957Z,24.90
2023-05-21T13:40:11.009Z,24.89
2023-05-21T13:41:12.942Z,24.91
2023-05-21T13:42:14.890Z,24.92
2023-05-21T13:43:16.953Z,24.90
2023-05-21T13:44:18.880Z,24.88
2023-05-21T13:45:21.507Z,24.89
2023-05-21T13:46:23.617Z,24.91
2023-05-21T13:47:25.686Z,24.90
2023-05-21T13:48:27.518Z,24.90
2023-05-21T13:49:29.394Z,24.89
2023-05-21T13:50:31.293Z,24.89
2023-05-21T13:51:39.133Z,24.90
2023-05-21T13:52:41.690Z,24.91
2023-05-21T13:53:44.094Z,24.91